Flight Track Log - Related Links

Times and Time Zones

All times are in EDT time to prevent confusion due to time zone crossing. See the SKW6538 flight status page for this flight to view local times or setup timezone preferences in your user account.

Time Position Orientation Groundspeed Altitude Reporting Facility
EDT Latitude Longitude Course Direction KTS MPH feet Rate Location/Type
Mon 11:58:12 PM 39.8833 -104.6167 346° North 186 214 6,000  Level Denver TRACON
Mon 11:59:12 PM 39.8833 -104.5500 90° East 202 232 7,800 1,800 Climbing Denver TRACON
Tue 12:00:12 AM 39.9167 -104.4833 57° Northeast 253 291 9,600 1,684 Climbing Denver TRACON
Tue 12:01:00 AM 40.1892 -104.7784 347° North  Level FlightAware Approximate
Tue 12:01:06 AM 39.9833 -104.5000 349° North 298 343 11,000  Level Denver TRACON
Tue 12:02:00 AM 40.3030 -104.8126 347° North  Level FlightAware Approximate
Tue 12:03:00 AM 40.4164 -104.8499 346° North  Level FlightAware Approximate
Tue 12:03:25 AM 40.1881 -104.5836 343° North 345 397 15,300  Level Denver Center
Tue 12:04:26 AM 40.2892 -104.6286 341° North 357 411 17,100 1,721 Climbing Denver Center
Tue 12:05:27 AM 40.3867 -104.6717 341° North 371 427 18,800 1,567 Climbing Denver Center
Tue 12:06:40 AM 40.4822 -104.7158 341° North 365 420 20,600 1,556 Climbing Denver Center
Tue 12:07:42 AM 40.6036 -104.7692 342° North 373 429 22,300 1,366 Climbing Denver Center
Tue 12:08:43 AM 40.7031 -104.8161 340° North 376 433 23,400 1,131 Climbing Denver Center
Tue 12:09:44 AM 40.8022 -104.8553 343° North 369 425 24,600 1,131 Climbing Denver Center
Tue 12:10:45 AM 40.9033 -104.9061 339° North 383 441 25,700 984 Climbing Denver Center
Tue 12:11:46 AM 41.0058 -104.9583 339° North 390 449 26,600 927 Climbing Denver Center
Tue 12:12:48 AM 41.1119 -105.0286 333° Northwest 394 453 27,600 878 Climbing Denver Center
Tue 12:13:49 AM 41.1631 -105.1472 300° West 386 444 28,400 836 Climbing Denver Center
Tue 12:14:50 AM 41.2192 -105.2936 297° West 394 453 29,300 738 Climbing Denver Center
Tue 12:15:51 AM 41.2664 -105.4186 297° West 395 455 29,900 541 Climbing Denver Center
Tue 12:16:52 AM 41.3144 -105.5456 297° West 399 459 30,400 541 Climbing Denver Center
Tue 12:17:53 AM 41.3722 -105.6964 297° West 408 470 31,000 541 Climbing Denver Center
Tue 12:18:54 AM 41.4203 -105.8264 296° West 409 471 31,500 443 Climbing Denver Center
Tue 12:19:55 AM 41.4694 -105.9583 296° West 413 475 31,900 246 Climbing Denver Center
Tue 12:20:56 AM 41.5281 -106.1147 297° West 419 482 32,000 49 Climbing Denver Center
Tue 12:21:58 AM 41.5783 -106.2483 297° West 421 484 32,000  Level Denver Center
Tue 12:22:59 AM 41.6253 -106.3794 296° West 413 475 32,000  Level Denver Center
Tue 12:23:59 AM 41.6664 -106.4875 297° West 409 471 32,000  Level Denver Center
Tue 12:25:01 AM 41.7311 -106.6661 296° West 407 468 32,000  Level Denver Center
Tue 12:26:01 AM 41.7714 -106.7747 296° West 408 470 32,000  Level Denver Center
Tue 12:27:03 AM 41.8322 -106.9486 295° West 405 466 32,000  Level Denver Center
Tue 12:28:04 AM 41.8814 -107.0803 297° West 409 471 32,000  Level Denver Center
Tue 12:29:05 AM 41.9283 -107.2139 295° West 413 475 32,000  Level Denver Center
Tue 12:30:06 AM 41.9839 -107.3667 296° West 417 480 32,000  Level Denver Center
Tue 12:31:07 AM 42.0328 -107.5047 296° West 418 481 32,000  Level Denver Center
Tue 12:32:08 AM 42.0867 -107.6614 295° West 416 479 32,000  Level Denver Center
Tue 12:32:44 AM 42.1097 -107.7294 295° West 420 483 32,000  Level Salt Lake Center
Tue 12:33:45 AM 42.1656 -107.8875 296° West 424 488 32,000  Level Salt Lake Center
Tue 12:34:46 AM 42.2119 -108.0211 295° West 418 481 32,000  Level Salt Lake Center
Tue 12:35:48 AM 42.2669 -108.1794 295° West 418 481 32,000  Level Salt Lake Center
Tue 12:36:49 AM 42.3139 -108.3175 295° West 422 486 32,000  Level Salt Lake Center
Tue 12:37:50 AM 42.3611 -108.4553 295° West 423 487 32,000  Level Salt Lake Center
Tue 12:38:51 AM 42.4158 -108.6172 295° West 426 490 32,000  Level Salt Lake Center
Tue 12:39:52 AM 42.4611 -108.7539 294° West 420 483 32,000  Level Salt Lake Center
Tue 12:40:53 AM 42.5156 -108.9156 295° West 423 487 32,000  Level Salt Lake Center
Tue 12:41:55 AM 42.5625 -109.0539 295° West 424 488 32,000  Level Salt Lake Center
Tue 12:42:55 AM 42.6078 -109.1917 294° West 420 483 32,000  Level Salt Lake Center
Tue 12:43:56 AM 42.6608 -109.3528 294° West 420 483 32,000  Level Salt Lake Center
Tue 12:44:57 AM 42.7064 -109.4917 294° West 422 486 32,000  Level Salt Lake Center
Tue 12:45:58 AM 42.7522 -109.6319 294° West 425 489 32,000  Level Salt Lake Center
Tue 12:46:59 AM 42.8061 -109.7925 295° West 422 486 32,000  Level Salt Lake Center
Tue 12:48:00 AM 42.8494 -109.9306 293° West 422 486 32,000  Level Salt Lake Center
Tue 12:49:01 AM 42.9028 -110.0950 294° West 424 488 32,000  Level Salt Lake Center
Tue 12:50:02 AM 42.9486 -110.2364 294° West 422 486 32,000 -197 Level Salt Lake Center
Tue 12:51:03 AM 42.9925 -110.3778 293° West 425 489 31,600 -1,918 Descending Salt Lake Center
Tue 12:52:04 AM 43.0450 -110.5436 293° West 426 490 28,100 -3,098 Descending Salt Lake Center
Tue 12:53:05 AM 43.0894 -110.6819 294° West 420 483 25,300 -2,656 Descending Salt Lake Center
Tue 12:54:06 AM 43.1319 -110.8167 293° West 408 470 22,700 -2,607 Descending Salt Lake Center
Tue 12:55:07 AM 43.1731 -110.9489 293° West 393 452 20,000 -2,479 Descending Salt Lake Center
Tue 12:56:07 AM 43.2142 -111.0814 293° West 380 437 17,700 -2,083 Descending Salt Lake Center
Tue 12:57:08 AM 43.2561 -111.2164 293° West 382 440 15,800 -2,115 Descending Salt Lake Center
Tue 12:58:09 AM 43.3044 -111.3733 293° West 384 442 13,400 -1,377 Descending Salt Lake Center
Tue 12:59:10 AM 43.3428 -111.4989 293° West 380 437 13,000 -197 Descending Salt Lake Center
Tue 01:00:11 AM 43.3761 -111.6133 292° West 364 419 13,000 -295 Level Salt Lake Center
Tue 01:01:12 AM 43.4108 -111.7164 295° West 295 339 12,400 -793 Descending Salt Lake Center
Tue 01:02:12 AM 43.4647 -111.7622 328° Northwest 245 282 11,400 -1,190 Descending Salt Lake Center
Tue 01:03:13 AM 43.5211 -111.8131 327° Northwest 246 283 10,000 -1,475 Descending Salt Lake Center
Tue 01:04:14 AM 43.5833 -111.8733 325° Northwest 248 285 8,400 -1,377 Descending Salt Lake Center
Tue 01:05:15 AM 43.6097 -111.9339 301° West 218 251 7,200 -942 Descending Salt Lake Center
Tue 01:06:15 AM 43.5933 -111.9925 249° West 192 221 6,500 -700 Descending Salt Lake Center

Login

Don't have an account? Register now (free) for customized features, flight alerts, and more!